sensor_id;sensor_type;location;lat;lon;timestamp;P1;durP1;ratioP1;P2;durP2;ratioP2
64065;SDS011;50318;54.760;9.408;2022-08-30T00:01:05;2.80;;;1.80;;
64065;SDS011;50318;54.760;9.408;2022-08-30T00:03:32;4.07;;;1.93;;
64065;SDS011;50318;54.760;9.408;2022-08-30T00:06:01;3.50;;;2.00;;
64065;SDS011;50318;54.760;9.408;2022-08-30T00:08:27;3.07;;;1.97;;
64065;SDS011;50318;54.760;9.408;2022-08-30T00:10:53;3.53;;;2.00;;
64065;SDS011;50318;54.760;9.408;2022-08-30T00:13:20;3.17;;;2.00;;
64065;SDS011;50318;54.760;9.408;2022-08-30T00:15:46;4.55;;;1.80;;
64065;SDS011;50318;54.760;9.408;2022-08-30T00:18:13;4.38;;;2.30;;
64065;SDS011;50318;54.760;9.408;2022-08-30T00:20:40;3.70;;;1.97;;
64065;SDS011;50318;54.760;9.408;2022-08-30T00:23:06;7.05;;;2.20;;
64065;SDS011;50318;54.760;9.408;2022-08-30T00:25:32;3.60;;;1.80;;
64065;SDS011;50318;54.760;9.408;2022-08-30T00:27:58;3.83;;;2.00;;
64065;SDS011;50318;54.760;9.408;2022-08-30T00:30:24;3.93;;;2.20;;
64065;SDS011;50318;54.760;9.408;2022-08-30T00:32:50;4.22;;;1.80;;
64065;SDS011;50318;54.760;9.408;2022-08-30T00:35:16;3.42;;;1.80;;
64065;SDS011;50318;54.760;9.408;2022-08-30T00:37:44;4.38;;;1.90;;
64065;SDS011;50318;54.760;9.408;2022-08-30T00:40:11;4.20;;;1.77;;
64065;SDS011;50318;54.760;9.408;2022-08-30T00:42:40;3.88;;;1.90;;
64065;SDS011;50318;54.760;9.408;2022-08-30T00:45:13;3.80;;;1.80;;
64065;SDS011;50318;54.760;9.408;2022-08-30T00:47:42;3.40;;;1.65;;
64065;SDS011;50318;54.760;9.408;2022-08-30T00:50:08;5.00;;;2.10;;
64065;SDS011;50318;54.760;9.408;2022-08-30T00:52:37;2.78;;;2.00;;
64065;SDS011;50318;54.760;9.408;2022-08-30T00:55:05;3.22;;;1.75;;
64065;SDS011;50318;54.760;9.408;2022-08-30T00:57:31;4.70;;;2.03;;
64065;SDS011;50318;54.760;9.408;2022-08-30T00:59:58;3.65;;;2.08;;
64065;SDS011;50318;54.760;9.408;2022-08-30T01:02:27;4.00;;;2.20;;
64065;SDS011;50318;54.760;9.408;2022-08-30T01:04:55;5.50;;;2.30;;
64065;SDS011;50318;54.760;9.408;2022-08-30T01:07:22;4.82;;;2.10;;
64065;SDS011;50318;54.760;9.408;2022-08-30T01:09:48;3.90;;;2.00;;
64065;SDS011;50318;54.760;9.408;2022-08-30T01:12:14;3.83;;;2.10;;
64065;SDS011;50318;54.760;9.408;2022-08-30T01:14:40;3.63;;;2.00;;
64065;SDS011;50318;54.760;9.408;2022-08-30T01:17:06;3.47;;;1.87;;
64065;SDS011;50318;54.760;9.408;2022-08-30T01:25:16;4.93;;;2.00;;
64065;SDS011;50318;54.760;9.408;2022-08-30T01:28:07;3.60;;;1.70;;
64065;SDS011;50318;54.760;9.408;2022-08-30T01:30:43;3.78;;;1.95;;
64065;SDS011;50318;54.760;9.408;2022-08-30T01:33:09;3.88;;;1.92;;
64065;SDS011;50318;54.760;9.408;2022-08-30T01:35:46;3.88;;;1.90;;
64065;SDS011;50318;54.760;9.408;2022-08-30T01:38:17;3.03;;;2.00;;
64065;SDS011;50318;54.760;9.408;2022-08-30T01:40:46;3.63;;;1.70;;
64065;SDS011;50318;54.760;9.408;2022-08-30T01:43:13;3.05;;;2.03;;
64065;SDS011;50318;54.760;9.408;2022-08-30T01:45:40;4.47;;;1.90;;
64065;SDS011;50318;54.760;9.408;2022-08-30T01:48:06;3.55;;;1.80;;
64065;SDS011;50318;54.760;9.408;2022-08-30T01:50:33;4.43;;;1.98;;
64065;SDS011;50318;54.760;9.408;2022-08-30T01:52:58;4.47;;;1.98;;
64065;SDS011;50318;54.760;9.408;2022-08-30T01:55:28;4.63;;;2.00;;
64065;SDS011;50318;54.760;9.408;2022-08-30T01:57:53;3.90;;;2.00;;
64065;SDS011;50318;54.760;9.408;2022-08-30T02:00:19;3.57;;;1.77;;
64065;SDS011;50318;54.760;9.408;2022-08-30T02:02:44;4.17;;;2.10;;
64065;SDS011;50318;54.760;9.408;2022-08-30T02:05:10;4.63;;;2.00;;
64065;SDS011;50318;54.760;9.408;2022-08-30T02:07:36;3.73;;;1.80;;
64065;SDS011;50318;54.760;9.408;2022-08-30T02:10:01;3.97;;;2.00;;
64065;SDS011;50318;54.760;9.408;2022-08-30T02:12:31;3.50;;;2.00;;
64065;SDS011;50318;54.760;9.408;2022-08-30T02:14:57;3.80;;;2.20;;
64065;SDS011;50318;54.760;9.408;2022-08-30T02:17:25;3.85;;;2.00;;
64065;SDS011;50318;54.760;9.408;2022-08-30T02:19:51;3.38;;;2.10;;
64065;SDS011;50318;54.760;9.408;2022-08-30T02:22:16;3.72;;;2.13;;
64065;SDS011;50318;54.760;9.408;2022-08-30T02:24:42;4.28;;;2.40;;
64065;SDS011;50318;54.760;9.408;2022-08-30T02:27:08;4.10;;;2.30;;
64065;SDS011;50318;54.760;9.408;2022-08-30T02:29:34;4.50;;;2.28;;
64065;SDS011;50318;54.760;9.408;2022-08-30T02:32:00;3.58;;;2.15;;
64065;SDS011;50318;54.760;9.408;2022-08-30T02:34:25;4.55;;;2.28;;
64065;SDS011;50318;54.760;9.408;2022-08-30T02:36:51;3.45;;;2.10;;
64065;SDS011;50318;54.760;9.408;2022-08-30T02:39:16;3.55;;;2.28;;
64065;SDS011;50318;54.760;9.408;2022-08-30T02:41:42;3.83;;;2.13;;
64065;SDS011;50318;54.760;9.408;2022-08-30T02:44:08;3.65;;;2.10;;
64065;SDS011;50318;54.760;9.408;2022-08-30T02:46:35;2.92;;;2.20;;
64065;SDS011;50318;54.760;9.408;2022-08-30T02:49:28;4.15;;;2.17;;
64065;SDS011;50318;54.760;9.408;2022-08-30T02:51:53;4.30;;;2.30;;
64065;SDS011;50318;54.760;9.408;2022-08-30T02:54:19;4.78;;;2.40;;
64065;SDS011;50318;54.760;9.408;2022-08-30T02:56:45;3.92;;;2.40;;
64065;SDS011;50318;54.760;9.408;2022-08-30T02:59:12;4.28;;;2.30;;
64065;SDS011;50318;54.760;9.408;2022-08-30T03:01:41;4.22;;;2.20;;
64065;SDS011;50318;54.760;9.408;2022-08-30T03:04:06;4.25;;;2.30;;
64065;SDS011;50318;54.760;9.408;2022-08-30T03:06:32;3.25;;;2.28;;
64065;SDS011;50318;54.760;9.408;2022-08-30T03:08:58;4.05;;;2.33;;
64065;SDS011;50318;54.760;9.408;2022-08-30T03:11:24;4.75;;;2.40;;
64065;SDS011;50318;54.760;9.408;2022-08-30T03:13:49;4.70;;;2.40;;
64065;SDS011;50318;54.760;9.408;2022-08-30T03:16:15;3.65;;;2.30;;
64065;SDS011;50318;54.760;9.408;2022-08-30T03:18:49;4.13;;;2.40;;
64065;SDS011;50318;54.760;9.408;2022-08-30T03:21:15;3.50;;;2.10;;
64065;SDS011;50318;54.760;9.408;2022-08-30T03:23:41;3.55;;;2.20;;
64065;SDS011;50318;54.760;9.408;2022-08-30T03:26:08;4.75;;;2.40;;
64065;SDS011;50318;54.760;9.408;2022-08-30T03:28:40;4.68;;;2.22;;
64065;SDS011;50318;54.760;9.408;2022-08-30T03:31:06;5.78;;;2.30;;
64065;SDS011;50318;54.760;9.408;2022-08-30T03:33:33;3.55;;;2.30;;
64065;SDS011;50318;54.760;9.408;2022-08-30T03:35:59;4.85;;;2.30;;
64065;SDS011;50318;54.760;9.408;2022-08-30T03:38:42;5.10;;;2.45;;
64065;SDS011;50318;54.760;9.408;2022-08-30T03:41:08;4.72;;;2.42;;
64065;SDS011;50318;54.760;9.408;2022-08-30T03:43:33;3.85;;;2.35;;
64065;SDS011;50318;54.760;9.408;2022-08-30T03:45:59;4.70;;;2.67;;
64065;SDS011;50318;54.760;9.408;2022-08-30T03:48:26;4.43;;;2.40;;
64065;SDS011;50318;54.760;9.408;2022-08-30T03:50:52;4.97;;;2.33;;
64065;SDS011;50318;54.760;9.408;2022-08-30T03:53:18;4.90;;;2.50;;
64065;SDS011;50318;54.760;9.408;2022-08-30T03:55:44;4.28;;;2.50;;
64065;SDS011;50318;54.760;9.408;2022-08-30T03:58:12;6.65;;;2.70;;
64065;SDS011;50318;54.760;9.408;2022-08-30T04:00:38;4.88;;;2.45;;
64065;SDS011;50318;54.760;9.408;2022-08-30T04:03:03;4.30;;;2.43;;
64065;SDS011;50318;54.760;9.408;2022-08-30T04:05:29;4.47;;;2.40;;
64065;SDS011;50318;54.760;9.408;2022-08-30T04:07:55;4.00;;;2.40;;
64065;SDS011;50318;54.760;9.408;2022-08-30T04:10:20;4.57;;;2.63;;
64065;SDS011;50318;54.760;9.408;2022-08-30T04:12:47;3.55;;;2.53;;
64065;SDS011;50318;54.760;9.408;2022-08-30T04:15:13;4.70;;;2.67;;
64065;SDS011;50318;54.760;9.408;2022-08-30T04:17:40;4.32;;;2.50;;
64065;SDS011;50318;54.760;9.408;2022-08-30T04:20:05;3.55;;;2.80;;
64065;SDS011;50318;54.760;9.408;2022-08-30T04:22:32;5.83;;;2.87;;
64065;SDS011;50318;54.760;9.408;2022-08-30T04:24:58;4.50;;;2.55;;
64065;SDS011;50318;54.760;9.408;2022-08-30T04:27:27;5.20;;;2.70;;
64065;SDS011;50318;54.760;9.408;2022-08-30T04:29:52;4.70;;;2.92;;
64065;SDS011;50318;54.760;9.408;2022-08-30T04:32:20;6.07;;;3.00;;
64065;SDS011;50318;54.760;9.408;2022-08-30T04:34:45;4.67;;;2.80;;
64065;SDS011;50318;54.760;9.408;2022-08-30T04:37:14;5.78;;;2.97;;
64065;SDS011;50318;54.760;9.408;2022-08-30T04:39:40;5.43;;;3.13;;
64065;SDS011;50318;54.760;9.408;2022-08-30T04:42:07;4.55;;;2.80;;
64065;SDS011;50318;54.760;9.408;2022-08-30T04:44:35;4.35;;;2.80;;
64065;SDS011;50318;54.760;9.408;2022-08-30T04:47:01;4.77;;;2.80;;
64065;SDS011;50318;54.760;9.408;2022-08-30T04:49:27;5.83;;;3.23;;
64065;SDS011;50318;54.760;9.408;2022-08-30T04:51:52;5.57;;;2.80;;
64065;SDS011;50318;54.760;9.408;2022-08-30T04:54:18;4.50;;;2.57;;
64065;SDS011;50318;54.760;9.408;2022-08-30T04:56:43;5.38;;;2.90;;
64065;SDS011;50318;54.760;9.408;2022-08-30T04:59:09;5.65;;;3.20;;
64065;SDS011;50318;54.760;9.408;2022-08-30T05:01:35;6.32;;;2.97;;
64065;SDS011;50318;54.760;9.408;2022-08-30T05:04:00;4.50;;;3.17;;
64065;SDS011;50318;54.760;9.408;2022-08-30T05:06:46;5.35;;;2.95;;
64065;SDS011;50318;54.760;9.408;2022-08-30T05:09:13;3.70;;;2.83;;
64065;SDS011;50318;54.760;9.408;2022-08-30T05:11:39;4.17;;;2.90;;
64065;SDS011;50318;54.760;9.408;2022-08-30T05:14:07;6.40;;;2.70;;
64065;SDS011;50318;54.760;9.408;2022-08-30T05:16:33;4.38;;;3.00;;
64065;SDS011;50318;54.760;9.408;2022-08-30T05:18:59;6.50;;;3.15;;
64065;SDS011;50318;54.760;9.408;2022-08-30T05:21:25;5.72;;;2.97;;
64065;SDS011;50318;54.760;9.408;2022-08-30T05:23:53;4.57;;;2.80;;
64065;SDS011;50318;54.760;9.408;2022-08-30T05:26:21;5.05;;;3.08;;
64065;SDS011;50318;54.760;9.408;2022-08-30T05:28:48;4.93;;;2.90;;
64065;SDS011;50318;54.760;9.408;2022-08-30T05:33:48;5.57;;;3.17;;
64065;SDS011;50318;54.760;9.408;2022-08-30T05:36:15;5.28;;;3.28;;
64065;SDS011;50318;54.760;9.408;2022-08-30T05:38:42;6.70;;;3.53;;
64065;SDS011;50318;54.760;9.408;2022-08-30T05:41:09;4.40;;;3.00;;
64065;SDS011;50318;54.760;9.408;2022-08-30T05:43:35;7.05;;;2.97;;
64065;SDS011;50318;54.760;9.408;2022-08-30T05:46:03;5.00;;;2.80;;
64065;SDS011;50318;54.760;9.408;2022-08-30T05:48:34;4.68;;;2.85;;
64065;SDS011;50318;54.760;9.408;2022-08-30T05:51:21;4.82;;;2.92;;
64065;SDS011;50318;54.760;9.408;2022-08-30T05:53:50;5.57;;;2.90;;
64065;SDS011;50318;54.760;9.408;2022-08-30T05:56:18;5.32;;;3.33;;
64065;SDS011;50318;54.760;9.408;2022-08-30T05:58:49;4.77;;;3.27;;
64065;SDS011;50318;54.760;9.408;2022-08-30T06:01:22;6.55;;;3.22;;
64065;SDS011;50318;54.760;9.408;2022-08-30T06:03:53;5.07;;;2.80;;
64065;SDS011;50318;54.760;9.408;2022-08-30T06:06:21;5.72;;;2.92;;
64065;SDS011;50318;54.760;9.408;2022-08-30T06:08:47;5.45;;;3.00;;
64065;SDS011;50318;54.760;9.408;2022-08-30T06:11:14;5.10;;;2.90;;
64065;SDS011;50318;54.760;9.408;2022-08-30T06:13:43;5.07;;;3.07;;
64065;SDS011;50318;54.760;9.408;2022-08-30T06:16:11;4.78;;;2.90;;
64065;SDS011;50318;54.760;9.408;2022-08-30T06:18:38;4.90;;;3.05;;
64065;SDS011;50318;54.760;9.408;2022-08-30T06:21:03;5.25;;;2.75;;
64065;SDS011;50318;54.760;9.408;2022-08-30T06:23:29;4.60;;;2.63;;
64065;SDS011;50318;54.760;9.408;2022-08-30T06:25:55;4.80;;;2.88;;
64065;SDS011;50318;54.760;9.408;2022-08-30T06:28:21;6.10;;;2.80;;
64065;SDS011;50318;54.760;9.408;2022-08-30T06:30:47;5.03;;;2.83;;
64065;SDS011;50318;54.760;9.408;2022-08-30T06:33:13;5.97;;;2.70;;
64065;SDS011;50318;54.760;9.408;2022-08-30T06:35:38;4.07;;;2.35;;
64065;SDS011;50318;54.760;9.408;2022-08-30T06:38:04;4.78;;;2.50;;
64065;SDS011;50318;54.760;9.408;2022-08-30T06:40:30;4.93;;;2.60;;
64065;SDS011;50318;54.760;9.408;2022-08-30T06:42:55;4.43;;;2.28;;
64065;SDS011;50318;54.760;9.408;2022-08-30T06:45:24;6.13;;;2.72;;
64065;SDS011;50318;54.760;9.408;2022-08-30T06:47:55;3.75;;;2.10;;
64065;SDS011;50318;54.760;9.408;2022-08-30T06:50:23;5.25;;;2.30;;
64065;SDS011;50318;54.760;9.408;2022-08-30T06:52:49;4.28;;;2.20;;
64065;SDS011;50318;54.760;9.408;2022-08-30T06:55:30;3.87;;;1.93;;
64065;SDS011;50318;54.760;9.408;2022-08-30T06:58:03;4.18;;;2.10;;
64065;SDS011;50318;54.760;9.408;2022-08-30T07:00:29;3.45;;;1.70;;
64065;SDS011;50318;54.760;9.408;2022-08-30T07:02:55;3.43;;;1.80;;
64065;SDS011;50318;54.760;9.408;2022-08-30T07:05:21;3.92;;;1.73;;
64065;SDS011;50318;54.760;9.408;2022-08-30T07:07:48;4.63;;;1.90;;
64065;SDS011;50318;54.760;9.408;2022-08-30T07:10:17;3.47;;;1.90;;
64065;SDS011;50318;54.760;9.408;2022-08-30T07:12:43;4.23;;;1.90;;
64065;SDS011;50318;54.760;9.408;2022-08-30T07:15:09;3.10;;;1.80;;
64065;SDS011;50318;54.760;9.408;2022-08-30T07:17:35;3.58;;;1.90;;
64065;SDS011;50318;54.760;9.408;2022-08-30T07:20:19;3.13;;;1.47;;
64065;SDS011;50318;54.760;9.408;2022-08-30T07:22:46;4.25;;;1.90;;
64065;SDS011;50318;54.760;9.408;2022-08-30T07:25:12;3.25;;;1.73;;
64065;SDS011;50318;54.760;9.408;2022-08-30T07:27:39;3.95;;;1.67;;
64065;SDS011;50318;54.760;9.408;2022-08-30T07:30:06;2.60;;;1.60;;
64065;SDS011;50318;54.760;9.408;2022-08-30T07:32:33;2.65;;;1.50;;
64065;SDS011;50318;54.760;9.408;2022-08-30T07:34:58;2.58;;;1.30;;
64065;SDS011;50318;54.760;9.408;2022-08-30T07:37:24;4.25;;;1.42;;
64065;SDS011;50318;54.760;9.408;2022-08-30T07:39:50;3.83;;;1.48;;
64065;SDS011;50318;54.760;9.408;2022-08-30T07:42:16;2.58;;;1.55;;
64065;SDS011;50318;54.760;9.408;2022-08-30T07:44:44;2.65;;;1.30;;
64065;SDS011;50318;54.760;9.408;2022-08-30T07:47:21;3.15;;;1.20;;
64065;SDS011;50318;54.760;9.408;2022-08-30T07:49:50;3.03;;;1.40;;
64065;SDS011;50318;54.760;9.408;2022-08-30T07:52:15;3.03;;;1.98;;
64065;SDS011;50318;54.760;9.408;2022-08-30T07:54:41;2.33;;;1.35;;
64065;SDS011;50318;54.760;9.408;2022-08-30T07:57:07;2.60;;;1.45;;
64065;SDS011;50318;54.760;9.408;2022-08-30T07:59:32;2.70;;;1.20;;
64065;SDS011;50318;54.760;9.408;2022-08-30T08:01:58;1.77;;;1.42;;
64065;SDS011;50318;54.760;9.408;2022-08-30T08:04:27;5.97;;;1.67;;
64065;SDS011;50318;54.760;9.408;2022-08-30T08:06:52;2.88;;;1.50;;
64065;SDS011;50318;54.760;9.408;2022-08-30T08:09:48;2.88;;;1.48;;
64065;SDS011;50318;54.760;9.408;2022-08-30T08:12:14;2.33;;;1.50;;
64065;SDS011;50318;54.760;9.408;2022-08-30T08:14:39;2.45;;;1.33;;
64065;SDS011;50318;54.760;9.408;2022-08-30T08:17:05;2.28;;;1.13;;
64065;SDS011;50318;54.760;9.408;2022-08-30T08:19:34;2.28;;;1.55;;
64065;SDS011;50318;54.760;9.408;2022-08-30T08:22:00;2.55;;;1.20;;
64065;SDS011;50318;54.760;9.408;2022-08-30T08:24:26;2.92;;;1.30;;
64065;SDS011;50318;54.760;9.408;2022-08-30T08:26:53;4.03;;;1.40;;
64065;SDS011;50318;54.760;9.408;2022-08-30T08:29:19;3.65;;;1.00;;
64065;SDS011;50318;54.760;9.408;2022-08-30T08:31:48;3.88;;;1.85;;
64065;SDS011;50318;54.760;9.408;2022-08-30T08:34:14;1.30;;;0.93;;
64065;SDS011;50318;54.760;9.408;2022-08-30T08:36:40;3.08;;;1.25;;
64065;SDS011;50318;54.760;9.408;2022-08-30T08:39:06;4.07;;;0.98;;
64065;SDS011;50318;54.760;9.408;2022-08-30T08:49:52;3.15;;;1.40;;
64065;SDS011;50318;54.760;9.408;2022-08-30T08:52:23;1.80;;;1.17;;
64065;SDS011;50318;54.760;9.408;2022-08-30T08:55:14;3.47;;;1.58;;
64065;SDS011;50318;54.760;9.408;2022-08-30T08:57:43;3.55;;;1.30;;
64065;SDS011;50318;54.760;9.408;2022-08-30T09:00:10;1.58;;;0.98;;
64065;SDS011;50318;54.760;9.408;2022-08-30T09:02:39;1.75;;;1.00;;
64065;SDS011;50318;54.760;9.408;2022-08-30T09:05:35;1.67;;;0.90;;
64065;SDS011;50318;54.760;9.408;2022-08-30T09:08:05;4.13;;;1.10;;
64065;SDS011;50318;54.760;9.408;2022-08-30T09:10:33;2.28;;;1.10;;
64065;SDS011;50318;54.760;9.408;2022-08-30T09:13:00;1.77;;;1.13;;
64065;SDS011;50318;54.760;9.408;2022-08-30T09:15:27;2.92;;;0.95;;
64065;SDS011;50318;54.760;9.408;2022-08-30T09:20:29;1.83;;;1.15;;
64065;SDS011;50318;54.760;9.408;2022-08-30T09:22:57;2.00;;;1.17;;
64065;SDS011;50318;54.760;9.408;2022-08-30T09:25:35;2.15;;;1.00;;
64065;SDS011;50318;54.760;9.408;2022-08-30T09:28:13;1.35;;;0.90;;
64065;SDS011;50318;54.760;9.408;2022-08-30T09:30:57;1.77;;;0.88;;
64065;SDS011;50318;54.760;9.408;2022-08-30T09:33:47;2.03;;;1.00;;
64065;SDS011;50318;54.760;9.408;2022-08-30T09:36:21;1.98;;;1.10;;
64065;SDS011;50318;54.760;9.408;2022-08-30T09:39:04;3.53;;;1.10;;
64065;SDS011;50318;54.760;9.408;2022-08-30T09:41:36;1.85;;;1.08;;
64065;SDS011;50318;54.760;9.408;2022-08-30T09:44:10;2.00;;;1.00;;
64065;SDS011;50318;54.760;9.408;2022-08-30T09:46:45;2.80;;;1.00;;
64065;SDS011;50318;54.760;9.408;2022-08-30T09:59:35;1.70;;;1.08;;
64065;SDS011;50318;54.760;9.408;2022-08-30T10:05:11;2.35;;;1.10;;
64065;SDS011;50318;54.760;9.408;2022-08-30T10:24:19;5.78;;;1.60;;
64065;SDS011;50318;54.760;9.408;2022-08-30T10:26:54;3.88;;;1.42;;
64065;SDS011;50318;54.760;9.408;2022-08-30T10:29:30;2.88;;;1.20;;
64065;SDS011;50318;54.760;9.408;2022-08-30T10:34:28;1.67;;;1.00;;
64065;SDS011;50318;54.760;9.408;2022-08-30T10:37:04;2.03;;;1.10;;
64065;SDS011;50318;54.760;9.408;2022-08-30T10:39:36;1.52;;;1.00;;
64065;SDS011;50318;54.760;9.408;2022-08-30T10:42:12;2.63;;;0.90;;
64065;SDS011;50318;54.760;9.408;2022-08-30T10:44:44;2.42;;;1.10;;
64065;SDS011;50318;54.760;9.408;2022-08-30T10:52:44;2.80;;;1.10;;
64065;SDS011;50318;54.760;9.408;2022-08-30T10:55:18;2.53;;;1.25;;
64065;SDS011;50318;54.760;9.408;2022-08-30T10:57:47;2.42;;;1.02;;
64065;SDS011;50318;54.760;9.408;2022-08-30T11:00:24;1.88;;;1.02;;
64065;SDS011;50318;54.760;9.408;2022-08-30T11:13:31;2.03;;;1.05;;
64065;SDS011;50318;54.760;9.408;2022-08-30T11:18:44;4.95;;;1.23;;
64065;SDS011;50318;54.760;9.408;2022-08-30T11:21:21;1.40;;;0.90;;
64065;SDS011;50318;54.760;9.408;2022-08-30T11:31:51;2.20;;;0.90;;
64065;SDS011;50318;54.760;9.408;2022-08-30T11:40:28;2.08;;;0.88;;
64065;SDS011;50318;54.760;9.408;2022-08-30T11:57:14;3.53;;;1.30;;
64065;SDS011;50318;54.760;9.408;2022-08-30T11:59:46;3.53;;;0.80;;
64065;SDS011;50318;54.760;9.408;2022-08-30T12:02:42;5.43;;;0.90;;
64065;SDS011;50318;54.760;9.408;2022-08-30T12:05:32;1.98;;;0.80;;
64065;SDS011;50318;54.760;9.408;2022-08-30T12:08:38;1.02;;;0.80;;
64065;SDS011;50318;54.760;9.408;2022-08-30T12:11:52;1.00;;;0.80;;
64065;SDS011;50318;54.760;9.408;2022-08-30T12:13:58;1.17;;;0.77;;
64065;SDS011;50318;54.760;9.408;2022-08-30T12:19:22;1.90;;;0.80;;
64065;SDS011;50318;54.760;9.408;2022-08-30T12:21:55;1.55;;;0.80;;
64065;SDS011;50318;54.760;9.408;2022-08-30T12:24:45;2.80;;;1.05;;
64065;SDS011;50318;54.760;9.408;2022-08-30T12:30:13;1.17;;;0.73;;
64065;SDS011;50318;54.760;9.408;2022-08-30T12:32:46;2.08;;;0.85;;
64065;SDS011;50318;54.760;9.408;2022-08-30T12:35:17;1.67;;;0.90;;
64065;SDS011;50318;54.760;9.408;2022-08-30T12:37:53;2.58;;;0.75;;
64065;SDS011;50318;54.760;9.408;2022-08-30T12:40:22;1.23;;;0.80;;
64065;SDS011;50318;54.760;9.408;2022-08-30T12:42:59;1.02;;;0.70;;
64065;SDS011;50318;54.760;9.408;2022-08-30T12:45:30;1.67;;;0.80;;
64065;SDS011;50318;54.760;9.408;2022-08-30T12:48:03;1.10;;;0.70;;
64065;SDS011;50318;54.760;9.408;2022-08-30T12:50:57;0.82;;;0.60;;
64065;SDS011;50318;54.760;9.408;2022-08-30T12:56:13;2.05;;;0.70;;
64065;SDS011;50318;54.760;9.408;2022-08-30T12:58:42;1.10;;;0.70;;
64065;SDS011;50318;54.760;9.408;2022-08-30T13:01:30;3.65;;;0.90;;
64065;SDS011;50318;54.760;9.408;2022-08-30T13:06:35;2.58;;;0.60;;
64065;SDS011;50318;54.760;9.408;2022-08-30T13:09:07;1.20;;;0.68;;
64065;SDS011;50318;54.760;9.408;2022-08-30T13:11:33;0.80;;;0.60;;
64065;SDS011;50318;54.760;9.408;2022-08-30T13:14:27;0.95;;;0.70;;
64065;SDS011;50318;54.760;9.408;2022-08-30T13:17:04;1.10;;;0.70;;
64065;SDS011;50318;54.760;9.408;2022-08-30T13:19:34;1.58;;;0.80;;
64065;SDS011;50318;54.760;9.408;2022-08-30T13:22:05;1.60;;;0.60;;
64065;SDS011;50318;54.760;9.408;2022-08-30T13:25:06;1.17;;;0.60;;
64065;SDS011;50318;54.760;9.408;2022-08-30T13:27:34;1.63;;;0.70;;
64065;SDS011;50318;54.760;9.408;2022-08-30T13:30:08;1.05;;;0.63;;
64065;SDS011;50318;54.760;9.408;2022-08-30T13:32:35;2.65;;;0.60;;
64065;SDS011;50318;54.760;9.408;2022-08-30T13:35:03;1.15;;;0.60;;
64065;SDS011;50318;54.760;9.408;2022-08-30T13:37:48;1.27;;;0.70;;
64065;SDS011;50318;54.760;9.408;2022-08-30T13:40:14;2.08;;;0.65;;
64065;SDS011;50318;54.760;9.408;2022-08-30T13:42:41;1.13;;;0.60;;
64065;SDS011;50318;54.760;9.408;2022-08-30T13:45:11;3.08;;;0.60;;
64065;SDS011;50318;54.760;9.408;2022-08-30T13:47:38;1.13;;;0.70;;
64065;SDS011;50318;54.760;9.408;2022-08-30T13:50:04;2.58;;;0.70;;
64065;SDS011;50318;54.760;9.408;2022-08-30T13:52:30;2.38;;;0.80;;
64065;SDS011;50318;54.760;9.408;2022-08-30T13:54:56;0.90;;;0.50;;
64065;SDS011;50318;54.760;9.408;2022-08-30T13:57:24;27.20;;;8.60;;
64065;SDS011;50318;54.760;9.408;2022-08-30T13:59:54;0.68;;;0.50;;
64065;SDS011;50318;54.760;9.408;2022-08-30T14:02:20;2.67;;;0.70;;
64065;SDS011;50318;54.760;9.408;2022-08-30T14:04:46;0.60;;;0.60;;
64065;SDS011;50318;54.760;9.408;2022-08-30T14:07:11;1.40;;;0.80;;
64065;SDS011;50318;54.760;9.408;2022-08-30T14:09:37;0.98;;;0.50;;
64065;SDS011;50318;54.760;9.408;2022-08-30T14:12:03;1.38;;;0.68;;
64065;SDS011;50318;54.760;9.408;2022-08-30T14:14:28;0.68;;;0.60;;
64065;SDS011;50318;54.760;9.408;2022-08-30T14:16:54;0.80;;;0.52;;
64065;SDS011;50318;54.760;9.408;2022-08-30T14:19:20;1.88;;;0.60;;
64065;SDS011;50318;54.760;9.408;2022-08-30T14:21:48;1.95;;;0.70;;
64065;SDS011;50318;54.760;9.408;2022-08-30T14:24:15;1.20;;;0.70;;
64065;SDS011;50318;54.760;9.408;2022-08-30T14:26:42;0.63;;;0.60;;
64065;SDS011;50318;54.760;9.408;2022-08-30T14:29:23;1.17;;;0.70;;
64065;SDS011;50318;54.760;9.408;2022-08-30T14:31:54;1.50;;;0.60;;
64065;SDS011;50318;54.760;9.408;2022-08-30T14:34:28;1.77;;;0.60;;
64065;SDS011;50318;54.760;9.408;2022-08-30T14:36:53;1.15;;;0.50;;
64065;SDS011;50318;54.760;9.408;2022-08-30T14:39:20;1.80;;;0.70;;
64065;SDS011;50318;54.760;9.408;2022-08-30T14:41:50;0.52;;;0.50;;
64065;SDS011;50318;54.760;9.408;2022-08-30T14:44:18;1.00;;;0.50;;
64065;SDS011;50318;54.760;9.408;2022-08-30T14:46:46;0.73;;;0.50;;
64065;SDS011;50318;54.760;9.408;2022-08-30T14:49:13;1.13;;;0.60;;
64065;SDS011;50318;54.760;9.408;2022-08-30T14:51:39;0.82;;;0.70;;
64065;SDS011;50318;54.760;9.408;2022-08-30T14:54:06;1.23;;;0.65;;
64065;SDS011;50318;54.760;9.408;2022-08-30T14:56:36;2.83;;;0.80;;
64065;SDS011;50318;54.760;9.408;2022-08-30T14:59:03;2.13;;;0.50;;
64065;SDS011;50318;54.760;9.408;2022-08-30T15:01:32;2.10;;;0.70;;
64065;SDS011;50318;54.760;9.408;2022-08-30T15:03:58;1.85;;;0.82;;
64065;SDS011;50318;54.760;9.408;2022-08-30T15:06:24;1.15;;;0.60;;
64065;SDS011;50318;54.760;9.408;2022-08-30T15:08:50;1.27;;;0.57;;
64065;SDS011;50318;54.760;9.408;2022-08-30T15:11:18;1.17;;;0.63;;
64065;SDS011;50318;54.760;9.408;2022-08-30T15:13:45;1.10;;;0.95;;
64065;SDS011;50318;54.760;9.408;2022-08-30T15:16:20;1.63;;;0.60;;
64065;SDS011;50318;54.760;9.408;2022-08-30T15:18:57;1.52;;;0.50;;
64065;SDS011;50318;54.760;9.408;2022-08-30T15:23:57;1.02;;;0.70;;
64065;SDS011;50318;54.760;9.408;2022-08-30T15:26:23;2.00;;;0.60;;
64065;SDS011;50318;54.760;9.408;2022-08-30T15:28:49;3.47;;;0.75;;
64065;SDS011;50318;54.760;9.408;2022-08-30T15:31:19;1.92;;;0.70;;
64065;SDS011;50318;54.760;9.408;2022-08-30T15:33:50;0.85;;;0.60;;
64065;SDS011;50318;54.760;9.408;2022-08-30T15:36:15;1.20;;;0.60;;
64065;SDS011;50318;54.760;9.408;2022-08-30T15:39:14;2.13;;;0.75;;
64065;SDS011;50318;54.760;9.408;2022-08-30T15:41:40;1.20;;;0.60;;
64065;SDS011;50318;54.760;9.408;2022-08-30T15:44:10;1.43;;;0.70;;
64065;SDS011;50318;54.760;9.408;2022-08-30T15:46:37;1.50;;;0.70;;
64065;SDS011;50318;54.760;9.408;2022-08-30T15:49:13;1.10;;;0.70;;
64065;SDS011;50318;54.760;9.408;2022-08-30T15:51:41;0.63;;;0.53;;
64065;SDS011;50318;54.760;9.408;2022-08-30T15:54:09;1.95;;;0.70;;
64065;SDS011;50318;54.760;9.408;2022-08-30T15:56:39;1.70;;;0.70;;
64065;SDS011;50318;54.760;9.408;2022-08-30T15:59:05;2.50;;;0.63;;
64065;SDS011;50318;54.760;9.408;2022-08-30T16:01:31;1.80;;;0.70;;
64065;SDS011;50318;54.760;9.408;2022-08-30T16:03:57;1.30;;;0.75;;
64065;SDS011;50318;54.760;9.408;2022-08-30T16:06:26;1.13;;;0.68;;
64065;SDS011;50318;54.760;9.408;2022-08-30T16:08:54;1.73;;;0.80;;
64065;SDS011;50318;54.760;9.408;2022-08-30T16:11:23;3.10;;;0.95;;
64065;SDS011;50318;54.760;9.408;2022-08-30T16:13:50;2.22;;;0.60;;
64065;SDS011;50318;54.760;9.408;2022-08-30T16:16:38;2.13;;;0.80;;
64065;SDS011;50318;54.760;9.408;2022-08-30T16:19:06;3.80;;;0.80;;
64065;SDS011;50318;54.760;9.408;2022-08-30T16:21:32;4.13;;;0.82;;
64065;SDS011;50318;54.760;9.408;2022-08-30T16:24:02;1.65;;;0.70;;
64065;SDS011;50318;54.760;9.408;2022-08-30T16:26:29;1.75;;;0.70;;
64065;SDS011;50318;54.760;9.408;2022-08-30T16:28:56;2.58;;;0.85;;
64065;SDS011;50318;54.760;9.408;2022-08-30T16:31:24;1.60;;;0.60;;
64065;SDS011;50318;54.760;9.408;2022-08-30T16:33:54;1.97;;;0.93;;
64065;SDS011;50318;54.760;9.408;2022-08-30T16:36:23;1.08;;;0.70;;
64065;SDS011;50318;54.760;9.408;2022-08-30T16:38:50;2.40;;;0.75;;
64065;SDS011;50318;54.760;9.408;2022-08-30T16:41:16;1.20;;;0.90;;
64065;SDS011;50318;54.760;9.408;2022-08-30T16:43:45;1.35;;;0.73;;
64065;SDS011;50318;54.760;9.408;2022-08-30T16:46:11;0.85;;;0.65;;
64065;SDS011;50318;54.760;9.408;2022-08-30T16:48:42;2.23;;;0.70;;
64065;SDS011;50318;54.760;9.408;2022-08-30T16:51:11;1.60;;;0.70;;
64065;SDS011;50318;54.760;9.408;2022-08-30T16:53:39;2.50;;;0.85;;